This is the latest recevied weather packets stored in our database for station/object HS5NMF. If no packets are shown the sender has not sent any weather packets the latest 10 day(s).
| Time | Temp. | Humidity | Pressure | Rain* | Wind** | Luminosity | Snow |
|---|---|---|---|---|---|---|---|
| 1777601584 | 34.44° C | 56% | 980 hPa | - | - | 0 W/m² | - |
| 1777601261 | 33.89° C | 57% | 980 hPa | - | - | 0 W/m² | - |
| 1777600937 | 33.33° C | 58% | 980 hPa | - | - | 0 W/m² | - |
| 1777600613 | 32.78° C | 60% | 980 hPa | - | - | 0 W/m² | - |
| 1777600290 | 32.78° C | 60% | 980 hPa | - | - | 0 W/m² | - |
| 1777599965 | 32.78° C | 61% | 980 hPa | - | - | 0 W/m² | - |
| 1777599641 | 33.33° C | 59% | 980 hPa | - | - | 0 W/m² | - |
| 1777599318 | 33.33° C | 60% | 980 hPa | - | - | 0 W/m² | - |
| 1777598993 | 32.22° C | 62% | 980 hPa | - | - | 0 W/m² | - |
| 1777598669 | 32.22° C | 63% | 980 hPa | - | - | 0 W/m² | - |
| 1777598348 | 31.67° C | 65% | 979 hPa | - | - | 0 W/m² | - |
| 1777598023 | 31.67° C | 65% | 979 hPa | - | - | 0 W/m² | - |
| 1777597702 | 31.67° C | 65% | 979 hPa | - | - | 0 W/m² | - |
| 1777597700 | 31.67° C | 65% | 979 hPa | - | - | 0 W/m² | - |
| 1777597377 | 30° C | 71% | 979 hPa | - | - | 0 W/m² | - |
| 1777597055 | 30° C | 70% | 979 hPa | - | - | 0 W/m² | - |
| 1777596730 | 28.89° C | 71% | 979 hPa | - | - | 0 W/m² | - |
| 1777596406 | 28.33° C | 73% | 979 hPa | - | - | 0 W/m² | - |
| 1777596082 | 28.89° C | 71% | 979 hPa | - | - | 0 W/m² | - |
| 1777595760 | 28.33° C | 74% | 979 hPa | - | - | 0 W/m² | - |
| 1777595437 | 27.78° C | 75% | 979 hPa | - | - | 0 W/m² | - |
| 1777595111 | 27.78° C | 79% | 979 hPa | - | - | 0 W/m² | - |
| 1777594788 | 27.78° C | 78% | 979 hPa | - | - | 0 W/m² | - |
| 1777594464 | 27.22° C | 81% | 978 hPa | - | - | 0 W/m² | - |
| 1777594141 | 27.22° C | 80% | 978 hPa | - | - | 0 W/m² | - |
* Rain since midnight (hover to see other rain measurements)
** Current wind speed in m/s (hover to see current wind gust speed)